sensor_id;sensor_type;location;lat;lon;timestamp;temperature;humidity
10070;DHT22;5074;53.720;10.014;2022-10-31T00:00:47;10.30;99.90
10070;DHT22;5074;53.720;10.014;2022-10-31T00:03:16;10.30;99.90
10070;DHT22;5074;53.720;10.014;2022-10-31T00:05:45;10.30;99.90
10070;DHT22;5074;53.720;10.014;2022-10-31T00:08:14;10.30;99.90
10070;DHT22;5074;53.720;10.014;2022-10-31T00:10:43;10.30;99.90
10070;DHT22;5074;53.720;10.014;2022-10-31T00:13:12;10.20;99.90
10070;DHT22;5074;53.720;10.014;2022-10-31T00:15:41;10.20;99.90
10070;DHT22;5074;53.720;10.014;2022-10-31T00:18:10;10.30;99.90
10070;DHT22;5074;53.720;10.014;2022-10-31T00:20:39;10.40;99.90
10070;DHT22;5074;53.720;10.014;2022-10-31T00:23:07;10.40;99.90
10070;DHT22;5074;53.720;10.014;2022-10-31T00:25:36;10.30;99.90
10070;DHT22;5074;53.720;10.014;2022-10-31T00:28:05;10.30;99.90
10070;DHT22;5074;53.720;10.014;2022-10-31T00:30:34;10.40;99.90
10070;DHT22;5074;53.720;10.014;2022-10-31T00:33:02;10.40;99.90
10070;DHT22;5074;53.720;10.014;2022-10-31T00:35:32;10.50;99.90
10070;DHT22;5074;53.720;10.014;2022-10-31T00:38:00;10.60;99.90
10070;DHT22;5074;53.720;10.014;2022-10-31T00:40:28;10.50;99.90
10070;DHT22;5074;53.720;10.014;2022-10-31T00:42:56;10.60;99.90
10070;DHT22;5074;53.720;10.014;2022-10-31T00:45:25;10.60;99.90
10070;DHT22;5074;53.720;10.014;2022-10-31T00:47:53;10.60;99.90
10070;DHT22;5074;53.720;10.014;2022-10-31T00:50:21;10.70;99.90
10070;DHT22;5074;53.720;10.014;2022-10-31T00:52:50;10.70;99.90
10070;DHT22;5074;53.720;10.014;2022-10-31T00:55:18;10.70;99.90
10070;DHT22;5074;53.720;10.014;2022-10-31T00:57:46;10.70;99.90
10070;DHT22;5074;53.720;10.014;2022-10-31T01:00:15;10.70;99.90
10070;DHT22;5074;53.720;10.014;2022-10-31T01:02:43;10.70;99.90
10070;DHT22;5074;53.720;10.014;2022-10-31T01:05:11;10.80;99.90
10070;DHT22;5074;53.720;10.014;2022-10-31T01:07:39;10.90;99.90
10070;DHT22;5074;53.720;10.014;2022-10-31T01:10:10;11.00;99.90
10070;DHT22;5074;53.720;10.014;2022-10-31T01:12:38;11.00;99.90
10070;DHT22;5074;53.720;10.014;2022-10-31T01:15:08;10.90;99.90
10070;DHT22;5074;53.720;10.014;2022-10-31T01:17:38;11.10;99.90
10070;DHT22;5074;53.720;10.014;2022-10-31T01:20:07;11.20;99.90
10070;DHT22;5074;53.720;10.014;2022-10-31T01:22:36;11.40;99.90
10070;DHT22;5074;53.720;10.014;2022-10-31T01:25:04;11.40;99.90
10070;DHT22;5074;53.720;10.014;2022-10-31T01:27:35;11.50;99.90
10070;DHT22;5074;53.720;10.014;2022-10-31T01:30:03;11.70;99.90
10070;DHT22;5074;53.720;10.014;2022-10-31T01:32:32;11.80;99.90
10070;DHT22;5074;53.720;10.014;2022-10-31T01:35:00;11.80;99.90
10070;DHT22;5074;53.720;10.014;2022-10-31T01:37:28;11.90;99.90
10070;DHT22;5074;53.720;10.014;2022-10-31T01:39:58;12.00;99.90
10070;DHT22;5074;53.720;10.014;2022-10-31T01:42:26;12.00;99.90
10070;DHT22;5074;53.720;10.014;2022-10-31T01:44:57;12.10;99.90
10070;DHT22;5074;53.720;10.014;2022-10-31T01:47:31;12.10;99.90
10070;DHT22;5074;53.720;10.014;2022-10-31T01:50:04;12.10;99.90
10070;DHT22;5074;53.720;10.014;2022-10-31T01:52:39;12.10;99.90
10070;DHT22;5074;53.720;10.014;2022-10-31T01:55:11;12.10;99.90
10070;DHT22;5074;53.720;10.014;2022-10-31T01:57:44;12.10;99.90
10070;DHT22;5074;53.720;10.014;2022-10-31T02:00:17;12.00;99.90
10070;DHT22;5074;53.720;10.014;2022-10-31T02:02:47;12.00;99.90
10070;DHT22;5074;53.720;10.014;2022-10-31T02:05:17;12.00;99.90
10070;DHT22;5074;53.720;10.014;2022-10-31T02:07:49;12.00;99.90
10070;DHT22;5074;53.720;10.014;2022-10-31T02:10:22;12.00;99.90
10070;DHT22;5074;53.720;10.014;2022-10-31T02:12:50;12.00;99.90
10070;DHT22;5074;53.720;10.014;2022-10-31T02:15:21;12.00;99.90
10070;DHT22;5074;53.720;10.014;2022-10-31T02:17:50;12.00;99.90
10070;DHT22;5074;53.720;10.014;2022-10-31T02:20:19;12.00;99.90
10070;DHT22;5074;53.720;10.014;2022-10-31T02:23:09;12.00;99.90
10070;DHT22;5074;53.720;10.014;2022-10-31T02:26:03;12.00;99.90
10070;DHT22;5074;53.720;10.014;2022-10-31T02:28:51;12.00;99.90
10070;DHT22;5074;53.720;10.014;2022-10-31T02:31:35;12.00;99.90
10070;DHT22;5074;53.720;10.014;2022-10-31T02:34:10;12.00;99.90
10070;DHT22;5074;53.720;10.014;2022-10-31T02:36:48;12.00;99.90
10070;DHT22;5074;53.720;10.014;2022-10-31T02:39:22;12.10;99.90
10070;DHT22;5074;53.720;10.014;2022-10-31T02:41:57;12.10;99.90
10070;DHT22;5074;53.720;10.014;2022-10-31T02:44:34;12.10;99.90
10070;DHT22;5074;53.720;10.014;2022-10-31T02:47:08;12.10;99.90
10070;DHT22;5074;53.720;10.014;2022-10-31T02:49:43;12.10;99.90
10070;DHT22;5074;53.720;10.014;2022-10-31T02:52:18;12.10;99.90
10070;DHT22;5074;53.720;10.014;2022-10-31T02:54:47;12.20;99.90
10070;DHT22;5074;53.720;10.014;2022-10-31T02:57:16;12.10;99.90
10070;DHT22;5074;53.720;10.014;2022-10-31T02:59:52;12.20;99.90
10070;DHT22;5074;53.720;10.014;2022-10-31T03:02:30;12.20;99.90
10070;DHT22;5074;53.720;10.014;2022-10-31T03:05:11;12.20;99.90
10070;DHT22;5074;53.720;10.014;2022-10-31T03:07:54;12.20;99.90
10070;DHT22;5074;53.720;10.014;2022-10-31T03:10:32;12.10;99.90
10070;DHT22;5074;53.720;10.014;2022-10-31T03:13:08;12.20;99.90
10070;DHT22;5074;53.720;10.014;2022-10-31T03:15:39;12.20;99.90
10070;DHT22;5074;53.720;10.014;2022-10-31T03:18:14;12.10;99.90
10070;DHT22;5074;53.720;10.014;2022-10-31T03:20:47;12.10;99.90
10070;DHT22;5074;53.720;10.014;2022-10-31T03:23:22;12.10;99.90
10070;DHT22;5074;53.720;10.014;2022-10-31T03:25:53;12.10;99.90
10070;DHT22;5074;53.720;10.014;2022-10-31T03:28:23;12.00;99.90
10070;DHT22;5074;53.720;10.014;2022-10-31T03:30:56;12.00;99.90
10070;DHT22;5074;53.720;10.014;2022-10-31T03:33:34;12.00;99.90
10070;DHT22;5074;53.720;10.014;2022-10-31T03:36:05;11.90;99.90
10070;DHT22;5074;53.720;10.014;2022-10-31T03:38:38;11.90;99.90
10070;DHT22;5074;53.720;10.014;2022-10-31T03:41:10;11.90;99.90
10070;DHT22;5074;53.720;10.014;2022-10-31T03:43:42;11.90;99.90
10070;DHT22;5074;53.720;10.014;2022-10-31T03:46:17;11.80;99.90
10070;DHT22;5074;53.720;10.014;2022-10-31T03:48:46;11.80;99.90
10070;DHT22;5074;53.720;10.014;2022-10-31T03:51:15;11.80;99.90
10070;DHT22;5074;53.720;10.014;2022-10-31T03:53:51;11.80;99.90
10070;DHT22;5074;53.720;10.014;2022-10-31T03:56:25;11.80;99.90
10070;DHT22;5074;53.720;10.014;2022-10-31T03:58:58;11.80;99.90
10070;DHT22;5074;53.720;10.014;2022-10-31T04:01:30;11.70;99.90
10070;DHT22;5074;53.720;10.014;2022-10-31T04:04:04;11.80;99.90
10070;DHT22;5074;53.720;10.014;2022-10-31T04:06:34;11.80;99.90
10070;DHT22;5074;53.720;10.014;2022-10-31T04:09:04;11.80;99.90
10070;DHT22;5074;53.720;10.014;2022-10-31T04:11:36;11.90;99.90
10070;DHT22;5074;53.720;10.014;2022-10-31T04:14:08;11.90;99.90
10070;DHT22;5074;53.720;10.014;2022-10-31T04:16:38;11.90;99.90
10070;DHT22;5074;53.720;10.014;2022-10-31T04:19:10;12.00;99.90
10070;DHT22;5074;53.720;10.014;2022-10-31T04:21:39;12.00;99.90
10070;DHT22;5074;53.720;10.014;2022-10-31T04:24:09;12.10;99.90
10070;DHT22;5074;53.720;10.014;2022-10-31T04:26:37;12.10;99.90
10070;DHT22;5074;53.720;10.014;2022-10-31T04:29:05;12.10;99.90
10070;DHT22;5074;53.720;10.014;2022-10-31T04:31:33;12.10;99.90
10070;DHT22;5074;53.720;10.014;2022-10-31T04:34:01;12.20;99.90
10070;DHT22;5074;53.720;10.014;2022-10-31T04:36:31;12.20;99.90
10070;DHT22;5074;53.720;10.014;2022-10-31T04:38:59;12.20;99.90
10070;DHT22;5074;53.720;10.014;2022-10-31T04:41:27;12.20;99.90
10070;DHT22;5074;53.720;10.014;2022-10-31T04:43:55;12.30;99.90
10070;DHT22;5074;53.720;10.014;2022-10-31T04:46:23;12.30;99.90
10070;DHT22;5074;53.720;10.014;2022-10-31T04:48:51;12.30;99.90
10070;DHT22;5074;53.720;10.014;2022-10-31T04:51:19;12.30;99.90
10070;DHT22;5074;53.720;10.014;2022-10-31T04:53:48;12.30;99.90
10070;DHT22;5074;53.720;10.014;2022-10-31T04:56:16;12.30;99.90
10070;DHT22;5074;53.720;10.014;2022-10-31T04:58:44;12.30;99.90
10070;DHT22;5074;53.720;10.014;2022-10-31T05:01:12;12.30;99.90
10070;DHT22;5074;53.720;10.014;2022-10-31T05:03:40;12.30;99.90
10070;DHT22;5074;53.720;10.014;2022-10-31T05:06:08;12.30;99.90
10070;DHT22;5074;53.720;10.014;2022-10-31T05:08:36;12.30;99.90
10070;DHT22;5074;53.720;10.014;2022-10-31T05:11:05;12.30;99.90
10070;DHT22;5074;53.720;10.014;2022-10-31T05:13:33;12.30;99.90
10070;DHT22;5074;53.720;10.014;2022-10-31T05:16:01;12.30;99.90
10070;DHT22;5074;53.720;10.014;2022-10-31T05:18:30;12.30;99.90
10070;DHT22;5074;53.720;10.014;2022-10-31T05:20:58;12.30;99.90
10070;DHT22;5074;53.720;10.014;2022-10-31T05:23:26;12.40;99.90
10070;DHT22;5074;53.720;10.014;2022-10-31T05:25:54;12.30;99.90
10070;DHT22;5074;53.720;10.014;2022-10-31T05:28:23;12.40;99.90
10070;DHT22;5074;53.720;10.014;2022-10-31T05:30:51;12.40;99.90
10070;DHT22;5074;53.720;10.014;2022-10-31T05:33:19;12.40;99.90
10070;DHT22;5074;53.720;10.014;2022-10-31T05:35:47;12.40;99.90
10070;DHT22;5074;53.720;10.014;2022-10-31T05:38:15;12.40;99.90
10070;DHT22;5074;53.720;10.014;2022-10-31T05:40:43;12.40;99.90
10070;DHT22;5074;53.720;10.014;2022-10-31T05:43:11;12.50;99.90
10070;DHT22;5074;53.720;10.014;2022-10-31T05:45:40;12.50;99.90
10070;DHT22;5074;53.720;10.014;2022-10-31T05:48:08;12.40;99.90
10070;DHT22;5074;53.720;10.014;2022-10-31T05:50:36;12.50;99.90
10070;DHT22;5074;53.720;10.014;2022-10-31T05:53:05;12.40;99.90
10070;DHT22;5074;53.720;10.014;2022-10-31T05:55:33;12.40;99.90
10070;DHT22;5074;53.720;10.014;2022-10-31T05:58:01;12.40;99.90
10070;DHT22;5074;53.720;10.014;2022-10-31T06:00:29;12.40;99.90
10070;DHT22;5074;53.720;10.014;2022-10-31T06:03:00;12.40;99.90
10070;DHT22;5074;53.720;10.014;2022-10-31T06:05:29;12.30;99.90
10070;DHT22;5074;53.720;10.014;2022-10-31T06:07:57;12.40;99.90
10070;DHT22;5074;53.720;10.014;2022-10-31T06:10:27;12.30;99.90
10070;DHT22;5074;53.720;10.014;2022-10-31T06:12:55;12.30;99.90
10070;DHT22;5074;53.720;10.014;2022-10-31T06:15:23;12.30;99.90
10070;DHT22;5074;53.720;10.014;2022-10-31T06:17:59;12.30;99.90
10070;DHT22;5074;53.720;10.014;2022-10-31T06:20:29;12.30;99.90
10070;DHT22;5074;53.720;10.014;2022-10-31T06:22:57;12.30;99.90
10070;DHT22;5074;53.720;10.014;2022-10-31T06:25:26;12.30;99.90
10070;DHT22;5074;53.720;10.014;2022-10-31T06:27:54;12.30;99.90
10070;DHT22;5074;53.720;10.014;2022-10-31T06:30:23;12.30;99.90
10070;DHT22;5074;53.720;10.014;2022-10-31T06:32:51;12.30;99.90
10070;DHT22;5074;53.720;10.014;2022-10-31T06:35:20;12.30;99.90
10070;DHT22;5074;53.720;10.014;2022-10-31T06:37:52;12.30;99.90
10070;DHT22;5074;53.720;10.014;2022-10-31T06:40:20;12.30;99.90
10070;DHT22;5074;53.720;10.014;2022-10-31T06:42:55;12.30;99.90
10070;DHT22;5074;53.720;10.014;2022-10-31T06:45:24;12.30;99.90
10070;DHT22;5074;53.720;10.014;2022-10-31T06:47:53;12.30;99.90
10070;DHT22;5074;53.720;10.014;2022-10-31T06:50:43;12.30;99.90
10070;DHT22;5074;53.720;10.014;2022-10-31T06:53:11;12.30;99.90
10070;DHT22;5074;53.720;10.014;2022-10-31T06:55:40;12.30;99.90
10070;DHT22;5074;53.720;10.014;2022-10-31T06:58:09;12.30;99.90
10070;DHT22;5074;53.720;10.014;2022-10-31T07:00:38;12.30;99.90
10070;DHT22;5074;53.720;10.014;2022-10-31T07:03:07;12.30;99.90
10070;DHT22;5074;53.720;10.014;2022-10-31T07:05:38;12.30;99.90
10070;DHT22;5074;53.720;10.014;2022-10-31T07:08:09;12.30;99.90
10070;DHT22;5074;53.720;10.014;2022-10-31T07:10:38;12.30;99.90
10070;DHT22;5074;53.720;10.014;2022-10-31T07:13:09;12.30;99.90
10070;DHT22;5074;53.720;10.014;2022-10-31T07:15:39;12.20;99.90
10070;DHT22;5074;53.720;10.014;2022-10-31T07:18:09;12.20;99.90
10070;DHT22;5074;53.720;10.014;2022-10-31T07:20:38;12.20;99.90
10070;DHT22;5074;53.720;10.014;2022-10-31T07:23:07;12.20;99.90
10070;DHT22;5074;53.720;10.014;2022-10-31T07:25:37;12.20;99.90
10070;DHT22;5074;53.720;10.014;2022-10-31T07:28:05;12.20;99.90
10070;DHT22;5074;53.720;10.014;2022-10-31T07:30:34;12.20;99.90
10070;DHT22;5074;53.720;10.014;2022-10-31T07:33:02;12.20;99.90
10070;DHT22;5074;53.720;10.014;2022-10-31T07:35:31;12.20;99.90
10070;DHT22;5074;53.720;10.014;2022-10-31T07:38:09;12.20;99.90
10070;DHT22;5074;53.720;10.014;2022-10-31T07:40:39;12.20;99.90
10070;DHT22;5074;53.720;10.014;2022-10-31T07:43:08;12.20;99.90
10070;DHT22;5074;53.720;10.014;2022-10-31T07:45:40;12.20;99.90
10070;DHT22;5074;53.720;10.014;2022-10-31T07:48:08;12.20;99.90
10070;DHT22;5074;53.720;10.014;2022-10-31T07:50:36;12.20;99.90
10070;DHT22;5074;53.720;10.014;2022-10-31T07:53:05;12.20;99.90
10070;DHT22;5074;53.720;10.014;2022-10-31T07:55:35;12.30;99.90
10070;DHT22;5074;53.720;10.014;2022-10-31T07:58:05;12.20;99.90
10070;DHT22;5074;53.720;10.014;2022-10-31T08:00:34;12.20;99.90
10070;DHT22;5074;53.720;10.014;2022-10-31T08:03:04;12.20;99.90
10070;DHT22;5074;53.720;10.014;2022-10-31T08:05:34;12.20;99.90
10070;DHT22;5074;53.720;10.014;2022-10-31T08:08:02;12.20;99.90
10070;DHT22;5074;53.720;10.014;2022-10-31T08:10:31;12.20;99.90
10070;DHT22;5074;53.720;10.014;2022-10-31T08:13:03;12.10;99.90
10070;DHT22;5074;53.720;10.014;2022-10-31T08:15:32;12.10;99.90
10070;DHT22;5074;53.720;10.014;2022-10-31T08:18:04;12.10;99.90
10070;DHT22;5074;53.720;10.014;2022-10-31T08:20:33;12.10;99.90
10070;DHT22;5074;53.720;10.014;2022-10-31T08:23:01;12.10;99.90
10070;DHT22;5074;53.720;10.014;2022-10-31T08:25:31;12.10;99.90
10070;DHT22;5074;53.720;10.014;2022-10-31T08:28:06;12.10;99.90
10070;DHT22;5074;53.720;10.014;2022-10-31T08:30:35;12.20;99.90
10070;DHT22;5074;53.720;10.014;2022-10-31T08:33:04;12.20;99.90
10070;DHT22;5074;53.720;10.014;2022-10-31T08:35:35;12.10;99.90
10070;DHT22;5074;53.720;10.014;2022-10-31T08:38:04;12.10;99.90
10070;DHT22;5074;53.720;10.014;2022-10-31T08:40:33;12.20;99.90
10070;DHT22;5074;53.720;10.014;2022-10-31T08:43:04;12.30;99.90
10070;DHT22;5074;53.720;10.014;2022-10-31T08:45:34;12.30;99.90
10070;DHT22;5074;53.720;10.014;2022-10-31T08:48:03;12.30;99.90
10070;DHT22;5074;53.720;10.014;2022-10-31T08:50:34;12.20;99.90
10070;DHT22;5074;53.720;10.014;2022-10-31T08:53:03;12.30;99.90
10070;DHT22;5074;53.720;10.014;2022-10-31T08:55:32;12.30;99.90
10070;DHT22;5074;53.720;10.014;2022-10-31T08:58:02;12.20;99.90
10070;DHT22;5074;53.720;10.014;2022-10-31T09:00:32;12.20;99.90
10070;DHT22;5074;53.720;10.014;2022-10-31T09:03:02;12.20;99.90
10070;DHT22;5074;53.720;10.014;2022-10-31T09:05:31;12.30;99.90
10070;DHT22;5074;53.720;10.014;2022-10-31T09:08:00;12.40;99.90
10070;DHT22;5074;53.720;10.014;2022-10-31T09:10:31;12.40;99.90
10070;DHT22;5074;53.720;10.014;2022-10-31T09:13:01;12.50;99.90
10070;DHT22;5074;53.720;10.014;2022-10-31T09:15:34;12.60;99.90
10070;DHT22;5074;53.720;10.014;2022-10-31T09:18:04;12.60;99.90
10070;DHT22;5074;53.720;10.014;2022-10-31T09:20:34;12.70;99.90
10070;DHT22;5074;53.720;10.014;2022-10-31T09:23:04;12.60;99.90
10070;DHT22;5074;53.720;10.014;2022-10-31T09:25:33;12.70;99.90
10070;DHT22;5074;53.720;10.014;2022-10-31T09:28:02;12.80;99.90
10070;DHT22;5074;53.720;10.014;2022-10-31T09:30:34;12.80;99.90
10070;DHT22;5074;53.720;10.014;2022-10-31T09:33:03;12.80;99.90
10070;DHT22;5074;53.720;10.014;2022-10-31T09:35:33;12.80;99.90
10070;DHT22;5074;53.720;10.014;2022-10-31T09:38:02;12.80;99.90
10070;DHT22;5074;53.720;10.014;2022-10-31T09:40:31;12.80;99.90
10070;DHT22;5074;53.720;10.014;2022-10-31T09:43:03;12.80;99.90
10070;DHT22;5074;53.720;10.014;2022-10-31T09:45:43;12.90;99.90
10070;DHT22;5074;53.720;10.014;2022-10-31T09:48:27;12.90;99.90
10070;DHT22;5074;53.720;10.014;2022-10-31T09:51:05;12.70;99.90
10070;DHT22;5074;53.720;10.014;2022-10-31T09:53:40;12.60;99.90
10070;DHT22;5074;53.720;10.014;2022-10-31T09:56:12;12.50;99.90
10070;DHT22;5074;53.720;10.014;2022-10-31T09:58:44;12.50;99.90
10070;DHT22;5074;53.720;10.014;2022-10-31T10:01:19;12.60;99.90
10070;DHT22;5074;53.720;10.014;2022-10-31T10:03:58;12.70;99.90
10070;DHT22;5074;53.720;10.014;2022-10-31T10:06:32;12.80;99.90
10070;DHT22;5074;53.720;10.014;2022-10-31T10:09:03;12.80;99.90
10070;DHT22;5074;53.720;10.014;2022-10-31T10:11:35;12.80;99.90
10070;DHT22;5074;53.720;10.014;2022-10-31T10:14:20;12.90;99.90
10070;DHT22;5074;53.720;10.014;2022-10-31T10:17:04;12.90;99.90
10070;DHT22;5074;53.720;10.014;2022-10-31T10:19:59;13.00;99.90
10070;DHT22;5074;53.720;10.014;2022-10-31T10:22:41;13.00;99.90
10070;DHT22;5074;53.720;10.014;2022-10-31T10:25:16;13.10;99.90
10070;DHT22;5074;53.720;10.014;2022-10-31T10:27:54;13.10;99.90
10070;DHT22;5074;53.720;10.014;2022-10-31T10:30:32;13.20;99.90
10070;DHT22;5074;53.720;10.014;2022-10-31T10:33:11;13.20;99.90
10070;DHT22;5074;53.720;10.014;2022-10-31T10:35:44;13.20;99.90
10070;DHT22;5074;53.720;10.014;2022-10-31T10:38:18;13.20;99.90
10070;DHT22;5074;53.720;10.014;2022-10-31T10:40:51;13.30;99.90
10070;DHT22;5074;53.720;10.014;2022-10-31T10:43:22;13.30;99.90
10070;DHT22;5074;53.720;10.014;2022-10-31T10:46:00;13.30;99.90
10070;DHT22;5074;53.720;10.014;2022-10-31T10:49:05;13.30;99.90
10070;DHT22;5074;53.720;10.014;2022-10-31T10:51:40;13.40;99.90
10070;DHT22;5074;53.720;10.014;2022-10-31T10:54:43;13.50;99.90
10070;DHT22;5074;53.720;10.014;2022-10-31T10:57:22;13.40;99.90
10070;DHT22;5074;53.720;10.014;2022-10-31T10:59:58;13.50;99.90
10070;DHT22;5074;53.720;10.014;2022-10-31T11:02:31;13.60;99.90
10070;DHT22;5074;53.720;10.014;2022-10-31T11:05:01;13.70;99.90
10070;DHT22;5074;53.720;10.014;2022-10-31T11:07:37;13.70;99.90
10070;DHT22;5074;53.720;10.014;2022-10-31T11:10:11;13.70;99.90
10070;DHT22;5074;53.720;10.014;2022-10-31T11:12:42;13.60;99.90
10070;DHT22;5074;53.720;10.014;2022-10-31T11:15:21;13.60;99.90
10070;DHT22;5074;53.720;10.014;2022-10-31T11:17:51;13.60;99.90
10070;DHT22;5074;53.720;10.014;2022-10-31T11:20:25;13.50;99.90
10070;DHT22;5074;53.720;10.014;2022-10-31T11:23:01;13.60;99.90
10070;DHT22;5074;53.720;10.014;2022-10-31T11:25:32;13.60;99.90
10070;DHT22;5074;53.720;10.014;2022-10-31T11:28:01;13.60;99.90
10070;DHT22;5074;53.720;10.014;2022-10-31T11:30:31;13.70;99.90
10070;DHT22;5074;53.720;10.014;2022-10-31T11:33:11;13.60;99.90
10070;DHT22;5074;53.720;10.014;2022-10-31T11:35:46;13.60;99.90
10070;DHT22;5074;53.720;10.014;2022-10-31T11:38:21;13.60;99.90
10070;DHT22;5074;53.720;10.014;2022-10-31T11:40:55;13.60;99.90
10070;DHT22;5074;53.720;10.014;2022-10-31T11:43:25;13.60;99.90
10070;DHT22;5074;53.720;10.014;2022-10-31T11:45:54;13.70;99.90
10070;DHT22;5074;53.720;10.014;2022-10-31T11:48:22;13.80;99.90
10070;DHT22;5074;53.720;10.014;2022-10-31T11:50:54;13.90;99.90
10070;DHT22;5074;53.720;10.014;2022-10-31T11:53:25;13.90;99.90
10070;DHT22;5074;53.720;10.014;2022-10-31T11:56:00;13.90;99.90
10070;DHT22;5074;53.720;10.014;2022-10-31T11:58:31;13.90;99.90
10070;DHT22;5074;53.720;10.014;2022-10-31T12:00:59;13.90;99.90
10070;DHT22;5074;53.720;10.014;2022-10-31T12:03:38;13.80;99.90
10070;DHT22;5074;53.720;10.014;2022-10-31T12:06:18;13.90;99.90
10070;DHT22;5074;53.720;10.014;2022-10-31T12:08:50;13.80;99.90
10070;DHT22;5074;53.720;10.014;2022-10-31T12:11:23;13.80;99.90
10070;DHT22;5074;53.720;10.014;2022-10-31T12:14:05;13.80;99.90
10070;DHT22;5074;53.720;10.014;2022-10-31T12:16:46;13.90;99.90
10070;DHT22;5074;53.720;10.014;2022-10-31T12:19:20;13.90;99.90
10070;DHT22;5074;53.720;10.014;2022-10-31T12:22:04;13.90;99.90
10070;DHT22;5074;53.720;10.014;2022-10-31T12:24:40;13.90;99.90
10070;DHT22;5074;53.720;10.014;2022-10-31T12:27:20;14.10;99.90
10070;DHT22;5074;53.720;10.014;2022-10-31T12:32:53;14.20;99.90
10070;DHT22;5074;53.720;10.014;2022-10-31T12:35:34;14.30;99.90
10070;DHT22;5074;53.720;10.014;2022-10-31T12:38:21;14.30;99.90
10070;DHT22;5074;53.720;10.014;2022-10-31T12:41:03;14.30;99.90
10070;DHT22;5074;53.720;10.014;2022-10-31T12:43:49;14.40;99.90
10070;DHT22;5074;53.720;10.014;2022-10-31T12:46:26;14.50;99.90
10070;DHT22;5074;53.720;10.014;2022-10-31T12:49:20;14.60;99.90
10070;DHT22;5074;53.720;10.014;2022-10-31T12:52:15;14.60;99.90
10070;DHT22;5074;53.720;10.014;2022-10-31T12:54:57;14.60;99.90
10070;DHT22;5074;53.720;10.014;2022-10-31T12:57:37;14.60;99.90
10070;DHT22;5074;53.720;10.014;2022-10-31T13:00:11;14.60;99.90
10070;DHT22;5074;53.720;10.014;2022-10-31T13:02:43;14.50;99.90
10070;DHT22;5074;53.720;10.014;2022-10-31T13:05:18;14.60;99.90
10070;DHT22;5074;53.720;10.014;2022-10-31T13:07:52;14.50;99.90
10070;DHT22;5074;53.720;10.014;2022-10-31T13:10:27;14.60;99.90
10070;DHT22;5074;53.720;10.014;2022-10-31T13:13:00;14.60;99.90
10070;DHT22;5074;53.720;10.014;2022-10-31T13:15:35;14.50;99.90
10070;DHT22;5074;53.720;10.014;2022-10-31T13:18:16;14.60;99.90
10070;DHT22;5074;53.720;10.014;2022-10-31T13:20:53;14.70;99.90
10070;DHT22;5074;53.720;10.014;2022-10-31T13:23:27;14.80;99.90
10070;DHT22;5074;53.720;10.014;2022-10-31T13:26:20;14.90;99.90
10070;DHT22;5074;53.720;10.014;2022-10-31T13:28:57;15.00;99.90
10070;DHT22;5074;53.720;10.014;2022-10-31T13:31:33;15.00;99.90
10070;DHT22;5074;53.720;10.014;2022-10-31T13:34:03;15.00;99.90
10070;DHT22;5074;53.720;10.014;2022-10-31T13:36:37;15.10;99.90
10070;DHT22;5074;53.720;10.014;2022-10-31T13:39:14;15.10;99.90
10070;DHT22;5074;53.720;10.014;2022-10-31T13:41:52;15.00;99.90
10070;DHT22;5074;53.720;10.014;2022-10-31T13:44:24;14.80;99.90
10070;DHT22;5074;53.720;10.014;2022-10-31T13:47:01;14.70;99.90
10070;DHT22;5074;53.720;10.014;2022-10-31T13:49:37;14.60;99.90
10070;DHT22;5074;53.720;10.014;2022-10-31T13:52:16;14.60;99.90
10070;DHT22;5074;53.720;10.014;2022-10-31T13:54:52;14.60;99.90
10070;DHT22;5074;53.720;10.014;2022-10-31T13:57:27;14.60;99.90
10070;DHT22;5074;53.720;10.014;2022-10-31T14:00:01;14.60;99.90
10070;DHT22;5074;53.720;10.014;2022-10-31T14:02:33;14.60;99.90
10070;DHT22;5074;53.720;10.014;2022-10-31T14:05:03;14.50;99.90
10070;DHT22;5074;53.720;10.014;2022-10-31T14:07:41;14.40;99.90
10070;DHT22;5074;53.720;10.014;2022-10-31T14:10:20;14.40;99.90
10070;DHT22;5074;53.720;10.014;2022-10-31T14:12:53;14.30;99.90
10070;DHT22;5074;53.720;10.014;2022-10-31T14:15:30;14.20;99.90
10070;DHT22;5074;53.720;10.014;2022-10-31T14:18:00;14.00;99.90
10070;DHT22;5074;53.720;10.014;2022-10-31T14:20:34;13.90;99.90
10070;DHT22;5074;53.720;10.014;2022-10-31T14:23:12;13.80;99.90
10070;DHT22;5074;53.720;10.014;2022-10-31T14:26:06;13.80;99.90
10070;DHT22;5074;53.720;10.014;2022-10-31T14:28:50;13.80;99.90
10070;DHT22;5074;53.720;10.014;2022-10-31T14:31:27;13.70;99.90
10070;DHT22;5074;53.720;10.014;2022-10-31T14:33:59;13.70;99.90
10070;DHT22;5074;53.720;10.014;2022-10-31T14:36:33;13.70;99.90
10070;DHT22;5074;53.720;10.014;2022-10-31T14:39:10;13.60;99.90
10070;DHT22;5074;53.720;10.014;2022-10-31T14:41:55;13.60;99.90
10070;DHT22;5074;53.720;10.014;2022-10-31T14:44:51;13.60;99.90
10070;DHT22;5074;53.720;10.014;2022-10-31T14:47:35;13.50;99.90
10070;DHT22;5074;53.720;10.014;2022-10-31T14:50:18;13.60;99.90
10070;DHT22;5074;53.720;10.014;2022-10-31T14:52:51;13.50;99.90
10070;DHT22;5074;53.720;10.014;2022-10-31T14:55:21;13.40;99.90
10070;DHT22;5074;53.720;10.014;2022-10-31T14:57:51;13.40;99.90
10070;DHT22;5074;53.720;10.014;2022-10-31T15:00:23;13.40;99.90
10070;DHT22;5074;53.720;10.014;2022-10-31T15:02:55;13.30;99.90
10070;DHT22;5074;53.720;10.014;2022-10-31T15:05:34;13.30;99.90
10070;DHT22;5074;53.720;10.014;2022-10-31T15:08:12;13.20;99.90
10070;DHT22;5074;53.720;10.014;2022-10-31T15:10:44;13.20;99.90
10070;DHT22;5074;53.720;10.014;2022-10-31T15:13:16;13.20;99.90
10070;DHT22;5074;53.720;10.014;2022-10-31T15:15:49;13.20;99.90
10070;DHT22;5074;53.720;10.014;2022-10-31T15:18:20;13.20;99.90
10070;DHT22;5074;53.720;10.014;2022-10-31T15:20:51;13.20;99.90
10070;DHT22;5074;53.720;10.014;2022-10-31T15:23:22;13.10;99.90
10070;DHT22;5074;53.720;10.014;2022-10-31T15:25:58;13.10;99.90
10070;DHT22;5074;53.720;10.014;2022-10-31T15:28:28;13.10;99.90
10070;DHT22;5074;53.720;10.014;2022-10-31T15:31:00;13.00;99.90
10070;DHT22;5074;53.720;10.014;2022-10-31T15:33:30;13.00;99.90
10070;DHT22;5074;53.720;10.014;2022-10-31T15:36:06;12.90;99.90
10070;DHT22;5074;53.720;10.014;2022-10-31T15:38:54;12.90;99.90
10070;DHT22;5074;53.720;10.014;2022-10-31T15:41:25;12.90;99.90
10070;DHT22;5074;53.720;10.014;2022-10-31T15:43:59;12.90;99.90
10070;DHT22;5074;53.720;10.014;2022-10-31T15:46:32;12.80;99.90
10070;DHT22;5074;53.720;10.014;2022-10-31T15:49:01;12.80;99.90
10070;DHT22;5074;53.720;10.014;2022-10-31T15:51:30;12.80;99.90
10070;DHT22;5074;53.720;10.014;2022-10-31T15:54:00;12.70;99.90
10070;DHT22;5074;53.720;10.014;2022-10-31T15:56:30;12.70;99.90
10070;DHT22;5074;53.720;10.014;2022-10-31T15:58:59;12.60;99.90
10070;DHT22;5074;53.720;10.014;2022-10-31T16:01:30;12.60;99.90
10070;DHT22;5074;53.720;10.014;2022-10-31T16:04:02;12.60;99.90
10070;DHT22;5074;53.720;10.014;2022-10-31T16:06:33;12.50;99.90